createdAt,value
2023-08-16T00:00:34.661Z,58.68
2023-08-16T00:03:01.242Z,58.63
2023-08-16T00:05:29.824Z,58.06
2023-08-16T00:07:56.298Z,58.18
2023-08-16T00:10:23.024Z,58.45
2023-08-16T00:12:49.529Z,59.14
2023-08-16T00:15:16.195Z,58.99
2023-08-16T00:17:42.712Z,59.00
2023-08-16T00:20:09.187Z,58.68
2023-08-16T00:22:35.661Z,58.77
2023-08-16T00:25:03.654Z,58.66
2023-08-16T00:27:31.173Z,58.30
2023-08-16T00:29:57.773Z,58.62
2023-08-16T00:32:24.256Z,58.65
2023-08-16T00:34:50.961Z,57.96
2023-08-16T00:37:17.415Z,58.14
2023-08-16T00:39:44.176Z,57.65
2023-08-16T00:42:10.763Z,58.03
2023-08-16T00:44:37.794Z,58.50
2023-08-16T00:47:05.936Z,58.38
2023-08-16T00:49:32.552Z,58.80
2023-08-16T00:51:59.024Z,58.57
2023-08-16T00:54:25.722Z,57.84
2023-08-16T00:56:52.196Z,58.00
2023-08-16T00:59:18.926Z,58.22
2023-08-16T01:01:45.427Z,58.38
2023-08-16T01:04:12.143Z,57.93
2023-08-16T01:06:39.705Z,58.05
2023-08-16T01:09:06.287Z,57.97
2023-08-16T01:11:32.725Z,58.28
2023-08-16T01:13:59.482Z,57.83
2023-08-16T01:16:26.151Z,57.79
2023-08-16T01:18:52.735Z,57.81
2023-08-16T01:21:19.261Z,57.57
2023-08-16T01:23:46.024Z,57.60
2023-08-16T01:26:12.473Z,57.23
2023-08-16T01:28:39.297Z,57.23
2023-08-16T01:31:05.760Z,57.36
2023-08-16T01:33:32.484Z,57.53
2023-08-16T01:35:58.959Z,57.30
2023-08-16T01:38:25.694Z,57.30
2023-08-16T01:40:52.286Z,57.58
2023-08-16T01:43:19.881Z,57.66
2023-08-16T01:45:46.538Z,57.36
2023-08-16T01:48:14.096Z,57.60
2023-08-16T01:50:40.691Z,57.56
2023-08-16T01:53:07.277Z,57.83
2023-08-16T01:55:33.860Z,58.22
2023-08-16T01:58:00.458Z,58.16
2023-08-16T02:00:27.033Z,57.59
2023-08-16T02:02:53.655Z,58.07
2023-08-16T02:05:20.134Z,58.22
2023-08-16T02:07:46.579Z,58.33
2023-08-16T02:10:13.050Z,58.61
2023-08-16T02:12:39.528Z,58.35
2023-08-16T02:15:06.143Z,58.52
2023-08-16T02:17:32.645Z,58.97
2023-08-16T02:19:59.135Z,58.42
2023-08-16T02:22:25.623Z,58.89
2023-08-16T02:24:52.136Z,58.98
2023-08-16T02:27:18.658Z,58.93
2023-08-16T02:29:45.132Z,58.52
2023-08-16T02:32:11.583Z,58.57
2023-08-16T02:34:38.071Z,58.14
2023-08-16T02:37:04.552Z,57.73
2023-08-16T02:39:31.030Z,57.29
2023-08-16T02:41:58.133Z,57.94
2023-08-16T02:44:24.713Z,57.52
2023-08-16T02:46:51.204Z,56.84
2023-08-16T02:49:17.720Z,56.66
2023-08-16T02:51:44.190Z,56.35
2023-08-16T02:54:10.641Z,56.40
2023-08-16T02:56:37.093Z,56.05
2023-08-16T02:59:03.552Z,56.48
2023-08-16T03:01:30.036Z,56.45
2023-08-16T03:03:56.497Z,56.85
2023-08-16T03:06:23.152Z,56.73
2023-08-16T03:08:49.643Z,57.07
2023-08-16T03:11:16.279Z,57.24
2023-08-16T03:13:42.860Z,56.99
2023-08-16T03:16:09.372Z,57.60
2023-08-16T03:18:35.877Z,58.13
2023-08-16T03:21:02.354Z,57.81
2023-08-16T03:23:29.227Z,57.92
2023-08-16T03:25:55.710Z,57.75
2023-08-16T03:28:22.375Z,57.91
2023-08-16T03:30:48.854Z,57.05
2023-08-16T03:33:15.420Z,57.03
2023-08-16T03:35:41.867Z,56.78
2023-08-16T03:38:08.730Z,57.39
2023-08-16T03:40:36.313Z,57.51
2023-08-16T03:43:02.877Z,58.06
2023-08-16T03:45:30.526Z,57.69
2023-08-16T03:47:57.118Z,58.35
2023-08-16T03:50:25.708Z,58.38
2023-08-16T03:52:52.178Z,58.73
2023-08-16T03:55:18.887Z,58.56
2023-08-16T03:57:45.343Z,59.19
2023-08-16T04:00:12.070Z,58.08
2023-08-16T04:02:38.647Z,57.80
2023-08-16T04:05:05.184Z,58.02
2023-08-16T04:07:31.669Z,57.85
2023-08-16T04:09:58.112Z,58.02
2023-08-16T04:12:24.602Z,58.31
2023-08-16T04:14:51.643Z,58.20
2023-08-16T04:17:18.127Z,58.11
2023-08-16T04:19:44.817Z,58.34
2023-08-16T04:22:11.269Z,58.98
2023-08-16T04:24:37.740Z,58.96
2023-08-16T04:27:04.247Z,59.25
2023-08-16T04:29:30.704Z,59.12
2023-08-16T04:31:57.168Z,59.08
2023-08-16T04:34:24.328Z,58.99
2023-08-16T04:36:50.826Z,59.06
2023-08-16T04:39:17.312Z,58.83
2023-08-16T04:41:43.767Z,57.97
2023-08-16T04:44:10.705Z,58.33
2023-08-16T04:46:37.136Z,58.21
2023-08-16T04:49:03.914Z,58.53
2023-08-16T04:51:30.507Z,58.71
2023-08-16T04:53:57.088Z,58.26
2023-08-16T04:56:23.530Z,58.24
2023-08-16T04:58:49.960Z,57.78
2023-08-16T05:01:16.495Z,57.86
2023-08-16T05:03:43.442Z,57.65
2023-08-16T05:06:11.086Z,57.58
2023-08-16T05:08:37.669Z,57.92
2023-08-16T05:11:04.300Z,58.73
2023-08-16T05:13:30.800Z,58.54
2023-08-16T05:15:57.271Z,58.11
2023-08-16T05:18:24.009Z,58.05
2023-08-16T05:20:50.520Z,57.89
2023-08-16T05:23:20.411Z,57.99
2023-08-16T05:25:47.808Z,57.70
2023-08-16T05:28:15.005Z,57.80
2023-08-16T05:30:41.534Z,57.93
2023-08-16T05:33:08.124Z,59.70
2023-08-16T05:35:34.661Z,60.37
2023-08-16T05:38:01.126Z,60.50
2023-08-16T05:40:28.118Z,61.20
2023-08-16T05:42:55.017Z,60.79
2023-08-16T05:45:21.517Z,61.49
2023-08-16T05:47:48.266Z,61.69
2023-08-16T05:50:14.753Z,61.88
2023-08-16T05:52:41.467Z,61.56
2023-08-16T05:55:07.949Z,60.80
2023-08-16T05:57:34.666Z,61.15
2023-08-16T06:00:01.146Z,61.12
2023-08-16T06:02:28.142Z,60.85
2023-08-16T06:04:54.760Z,61.11
2023-08-16T06:07:21.771Z,60.49
2023-08-16T06:09:48.439Z,60.99
2023-08-16T06:12:16.907Z,60.85
2023-08-16T06:14:45.131Z,60.83
2023-08-16T06:17:12.231Z,60.87
2023-08-16T06:19:39.544Z,61.12
2023-08-16T06:22:06.499Z,60.70
2023-08-16T06:24:33.080Z,60.76
2023-08-16T06:27:00.336Z,60.93
2023-08-16T06:29:29.022Z,60.49
2023-08-16T06:31:56.947Z,60.36
2023-08-16T06:34:24.147Z,60.29
2023-08-16T06:36:51.076Z,60.51
2023-08-16T06:39:17.763Z,60.77
2023-08-16T06:41:44.251Z,61.64
2023-08-16T06:44:10.970Z,62.16
2023-08-16T06:46:38.016Z,62.35
2023-08-16T06:49:04.830Z,62.38
2023-08-16T06:51:31.467Z,62.19
2023-08-16T06:53:57.947Z,62.43
2023-08-16T06:56:25.562Z,62.28
2023-08-16T06:58:52.720Z,62.27
2023-08-16T07:01:19.943Z,62.07
2023-08-16T07:03:46.535Z,61.47
2023-08-16T07:06:14.127Z,60.92
2023-08-16T07:08:40.717Z,61.84
2023-08-16T07:11:07.330Z,61.86
2023-08-16T07:13:33.822Z,61.65
2023-08-16T07:16:00.618Z,60.56
2023-08-16T07:18:28.166Z,60.35
2023-08-16T07:20:55.779Z,60.00
2023-08-16T07:23:22.261Z,60.16
2023-08-16T07:25:48.751Z,60.83
2023-08-16T07:28:15.221Z,60.09
2023-08-16T07:30:41.693Z,60.01
2023-08-16T07:33:08.148Z,59.37
2023-08-16T07:35:35.665Z,59.16
2023-08-16T07:38:03.260Z,59.48
2023-08-16T07:40:31.055Z,58.42
2023-08-16T07:42:59.511Z,57.90
2023-08-16T07:45:26.007Z,58.41
2023-08-16T07:47:52.526Z,57.85
2023-08-16T07:50:19.007Z,58.27
2023-08-16T07:52:45.505Z,58.19
2023-08-16T07:55:11.994Z,56.70
2023-08-16T07:57:38.908Z,57.73
2023-08-16T08:00:06.768Z,58.00
2023-08-16T08:02:44.990Z,56.25
2023-08-16T08:05:17.041Z,56.18
2023-08-16T08:07:43.559Z,56.67
2023-08-16T08:10:10.002Z,55.92
2023-08-16T08:12:36.483Z,56.37
2023-08-16T08:15:09.326Z,55.76
2023-08-16T08:17:37.495Z,55.11
2023-08-16T08:20:05.031Z,54.76
2023-08-16T08:22:31.864Z,56.13
2023-08-16T08:24:59.435Z,57.47
2023-08-16T08:27:25.919Z,55.87
2023-08-16T08:29:52.440Z,55.89
2023-08-16T08:32:18.946Z,56.02
2023-08-16T08:34:45.445Z,56.17
2023-08-16T08:37:11.898Z,56.35
2023-08-16T08:39:38.469Z,56.06
2023-08-16T08:42:04.959Z,56.00
2023-08-16T08:44:32.202Z,56.46
2023-08-16T08:47:03.833Z,55.20
2023-08-16T08:49:38.502Z,54.97
2023-08-16T08:52:04.955Z,53.56
2023-08-16T08:54:31.417Z,54.02
2023-08-16T08:56:57.880Z,52.44
2023-08-16T08:59:24.336Z,52.15
2023-08-16T09:01:50.865Z,51.98
2023-08-16T09:04:17.449Z,51.09
2023-08-16T09:06:43.901Z,51.23
2023-08-16T09:09:10.338Z,51.70
2023-08-16T09:11:36.852Z,50.59
2023-08-16T09:14:03.353Z,50.43
2023-08-16T09:16:29.931Z,49.16
2023-08-16T09:18:56.432Z,48.75
2023-08-16T09:21:22.916Z,47.67
2023-08-16T09:23:49.378Z,47.62
2023-08-16T09:26:15.898Z,48.46
2023-08-16T09:28:42.433Z,48.85
2023-08-16T09:31:08.896Z,49.35
2023-08-16T09:33:35.385Z,47.53
2023-08-16T09:36:01.859Z,48.62
2023-08-16T09:40:57.658Z,45.99
2023-08-16T09:43:24.144Z,44.17
2023-08-16T09:45:50.649Z,44.87
2023-08-16T09:48:17.290Z,43.73
2023-08-16T09:55:42.859Z,45.40
2023-08-16T09:58:09.345Z,45.88
2023-08-16T10:00:35.864Z,45.38
2023-08-16T10:03:02.426Z,45.51
2023-08-16T10:08:12.793Z,43.48
2023-08-16T10:10:39.306Z,43.55
2023-08-16T10:13:05.818Z,43.13
2023-08-16T10:15:32.269Z,43.71
2023-08-16T10:17:58.792Z,43.20
2023-08-16T10:20:25.297Z,41.38
2023-08-16T10:22:51.864Z,44.73
2023-08-16T10:25:18.704Z,42.54
2023-08-16T10:27:45.706Z,40.86
2023-08-16T10:30:12.193Z,40.77
2023-08-16T10:32:38.705Z,40.97
2023-08-16T10:35:05.205Z,41.35
2023-08-16T10:37:31.646Z,41.89
2023-08-16T10:40:12.118Z,43.21
2023-08-16T10:42:39.262Z,43.28
2023-08-16T10:45:05.749Z,42.13
2023-08-16T10:47:32.302Z,41.84
2023-08-16T10:49:58.789Z,42.52
2023-08-16T10:52:25.230Z,40.98
2023-08-16T10:54:51.701Z,42.86
2023-08-16T10:57:18.162Z,42.14
2023-08-16T10:59:44.615Z,42.38
2023-08-16T11:02:11.190Z,42.31
2023-08-16T11:04:37.900Z,42.65
2023-08-16T11:07:05.340Z,43.16
2023-08-16T11:09:32.209Z,41.86
2023-08-16T11:11:58.682Z,41.64
2023-08-16T11:14:25.146Z,42.67
2023-08-16T11:16:51.675Z,42.63
2023-08-16T11:19:18.836Z,42.63
2023-08-16T11:21:45.487Z,42.34
2023-08-16T11:24:12.010Z,42.99
2023-08-16T11:26:38.504Z,42.44
2023-08-16T11:29:04.954Z,41.70
2023-08-16T11:31:31.429Z,41.68
2023-08-16T11:33:57.931Z,41.96
2023-08-16T11:36:24.378Z,41.74
2023-08-16T11:38:50.833Z,41.42
2023-08-16T11:41:17.838Z,40.78
2023-08-16T11:43:44.415Z,40.33
2023-08-16T11:46:11.043Z,42.18
2023-08-16T11:48:37.507Z,41.02
2023-08-16T11:51:04.025Z,41.40
2023-08-16T11:53:30.480Z,40.78
2023-08-16T11:55:56.967Z,40.38
2023-08-16T11:58:23.434Z,40.41
2023-08-16T12:00:49.944Z,39.75
2023-08-16T12:03:16.524Z,39.59
2023-08-16T12:05:42.992Z,40.68
2023-08-16T12:08:09.462Z,40.30
2023-08-16T12:10:35.930Z,39.87
2023-08-16T12:13:02.399Z,38.00
2023-08-16T12:15:28.859Z,40.69
2023-08-16T12:17:55.327Z,40.11
2023-08-16T12:20:21.814Z,40.84
2023-08-16T12:22:48.297Z,39.91
2023-08-16T12:25:14.799Z,40.67
2023-08-16T12:27:41.240Z,40.61
2023-08-16T12:30:07.707Z,39.35
2023-08-16T12:32:34.211Z,38.69
2023-08-16T12:35:01.394Z,39.95
2023-08-16T12:37:28.180Z,39.79
2023-08-16T12:39:54.689Z,40.57
2023-08-16T12:42:21.131Z,40.47
2023-08-16T12:44:47.610Z,40.49
2023-08-16T12:47:14.075Z,40.34
2023-08-16T12:49:40.528Z,39.65
2023-08-16T12:52:06.977Z,40.64
2023-08-16T12:54:37.925Z,41.11
2023-08-16T12:57:07.007Z,40.58
2023-08-16T12:59:34.146Z,40.22
2023-08-16T13:02:03.277Z,41.51
2023-08-16T13:04:36.202Z,40.02
2023-08-16T13:07:06.323Z,39.59
2023-08-16T13:09:51.516Z,40.74
2023-08-16T13:15:06.561Z,40.17
2023-08-16T13:20:05.254Z,39.98
2023-08-16T13:25:12.600Z,38.81
2023-08-16T13:27:42.085Z,39.17
2023-08-16T13:30:17.657Z,38.16
2023-08-16T13:33:05.334Z,38.94
2023-08-16T13:35:33.110Z,38.80
2023-08-16T13:38:00.012Z,37.41
2023-08-16T13:40:34.025Z,38.47
2023-08-16T13:45:31.994Z,38.20
2023-08-16T13:47:58.855Z,37.64
2023-08-16T13:50:25.442Z,37.94
2023-08-16T13:52:52.034Z,37.89
2023-08-16T13:55:18.515Z,37.39
2023-08-16T13:57:46.445Z,37.63
2023-08-16T14:00:13.142Z,36.85
2023-08-16T14:02:39.794Z,37.31
2023-08-16T14:05:07.344Z,36.96
2023-08-16T14:07:34.912Z,38.23
2023-08-16T14:10:01.375Z,37.23
2023-08-16T14:12:28.126Z,36.76
2023-08-16T14:14:54.751Z,36.72
2023-08-16T14:17:22.373Z,37.07
2023-08-16T14:19:49.906Z,37.51
2023-08-16T14:22:17.502Z,37.22
2023-08-16T14:24:44.157Z,35.80
2023-08-16T14:27:11.696Z,35.77
2023-08-16T14:29:38.268Z,37.29
2023-08-16T14:32:05.869Z,37.10
2023-08-16T14:34:32.578Z,37.57
2023-08-16T14:36:59.081Z,37.82
2023-08-16T14:39:25.571Z,37.82
2023-08-16T14:41:52.062Z,37.22
2023-08-16T14:44:18.506Z,37.39
2023-08-16T14:46:44.975Z,37.18
2023-08-16T14:49:11.459Z,37.90
2023-08-16T14:51:37.953Z,38.27
2023-08-16T14:54:04.423Z,38.83
2023-08-16T14:56:30.869Z,36.59
2023-08-16T14:58:58.352Z,37.69
2023-08-16T15:01:24.835Z,37.61
2023-08-16T15:03:51.596Z,37.54
2023-08-16T15:06:19.134Z,36.62
2023-08-16T15:08:45.726Z,35.88
2023-08-16T15:11:12.330Z,35.93
2023-08-16T15:13:38.911Z,36.94
2023-08-16T15:16:05.389Z,37.16
2023-08-16T15:18:31.885Z,35.06
2023-08-16T15:20:58.402Z,35.79
2023-08-16T15:23:25.312Z,33.06
2023-08-16T15:25:51.855Z,32.80
2023-08-16T15:28:18.586Z,31.01
2023-08-16T15:30:45.041Z,31.84
2023-08-16T15:33:11.692Z,31.54
2023-08-16T15:35:39.254Z,31.36
2023-08-16T15:38:05.848Z,31.11
2023-08-16T15:40:32.326Z,29.93
2023-08-16T15:42:59.009Z,31.03
2023-08-16T15:45:25.462Z,32.09
2023-08-16T15:47:52.208Z,33.04
2023-08-16T15:50:18.707Z,31.18
2023-08-16T15:52:46.395Z,32.08
2023-08-16T15:55:13.000Z,33.32
2023-08-16T15:57:40.575Z,33.02
2023-08-16T16:00:07.161Z,32.24
2023-08-16T16:02:33.787Z,31.44
2023-08-16T16:05:00.313Z,32.26
2023-08-16T16:07:27.144Z,32.17
2023-08-16T16:09:54.507Z,31.06
2023-08-16T16:12:20.958Z,31.25
2023-08-16T16:14:47.698Z,31.39
2023-08-16T16:17:14.283Z,30.78
2023-08-16T16:19:40.864Z,31.37
2023-08-16T16:22:07.358Z,31.50
2023-08-16T16:24:33.825Z,31.52
2023-08-16T16:27:00.275Z,31.88
2023-08-16T16:29:27.224Z,30.82
2023-08-16T16:31:53.814Z,32.08
2023-08-16T16:34:21.592Z,32.57
2023-08-16T16:36:48.195Z,31.21
2023-08-16T16:39:15.609Z,33.14
2023-08-16T16:41:42.182Z,31.53
2023-08-16T16:44:08.812Z,30.79
2023-08-16T16:46:35.325Z,31.54
2023-08-16T16:49:01.983Z,33.09
2023-08-16T16:51:28.467Z,34.53
2023-08-16T16:53:55.153Z,34.35
2023-08-16T16:56:21.769Z,33.56
2023-08-16T16:58:48.217Z,34.73
2023-08-16T17:01:14.715Z,34.46
2023-08-16T17:03:41.316Z,34.80
2023-08-16T17:06:08.099Z,35.36
2023-08-16T17:08:35.713Z,36.89
2023-08-16T17:11:02.302Z,38.08
2023-08-16T17:13:28.791Z,37.50
2023-08-16T17:15:55.590Z,38.02
2023-08-16T17:18:23.077Z,37.55
2023-08-16T17:20:49.682Z,38.97
2023-08-16T17:23:17.290Z,39.62
2023-08-16T17:25:44.861Z,38.61
2023-08-16T17:28:11.366Z,39.02
2023-08-16T17:30:37.991Z,39.16
2023-08-16T17:33:04.628Z,39.84
2023-08-16T17:35:32.495Z,40.01
2023-08-16T17:37:58.985Z,39.05
2023-08-16T17:40:26.401Z,39.73
2023-08-16T17:42:52.983Z,40.09
2023-08-16T17:45:19.636Z,40.02
2023-08-16T17:47:46.276Z,40.73
2023-08-16T17:50:13.829Z,40.73
2023-08-16T17:52:41.400Z,40.81
2023-08-16T17:55:10.716Z,40.85
2023-08-16T17:57:37.596Z,41.17
2023-08-16T18:00:04.207Z,41.15
2023-08-16T18:02:30.741Z,40.90
2023-08-16T18:04:57.437Z,40.86
2023-08-16T18:07:24.201Z,40.92
2023-08-16T18:09:52.694Z,40.55
2023-08-16T18:12:19.141Z,41.07
2023-08-16T18:14:45.854Z,40.72
2023-08-16T18:17:12.479Z,40.29
2023-08-16T18:19:40.045Z,38.48
2023-08-16T18:22:06.624Z,36.39
2023-08-16T18:24:33.978Z,37.02
2023-08-16T18:27:00.540Z,37.48
2023-08-16T18:29:27.001Z,37.42
2023-08-16T18:31:53.983Z,37.81
2023-08-16T18:34:20.494Z,38.00
2023-08-16T18:36:47.160Z,38.27
2023-08-16T18:39:13.616Z,38.31
2023-08-16T18:41:40.083Z,38.46
2023-08-16T18:44:06.560Z,38.74
2023-08-16T18:46:33.617Z,39.30
2023-08-16T18:49:01.192Z,39.39
2023-08-16T18:51:27.626Z,39.70
2023-08-16T18:53:55.472Z,39.60
2023-08-16T18:56:21.948Z,39.53
2023-08-16T18:58:49.707Z,39.37
2023-08-16T19:01:18.490Z,39.65
2023-08-16T19:03:45.982Z,39.76
2023-08-16T19:06:12.480Z,39.91
2023-08-16T19:08:38.977Z,40.33
2023-08-16T19:11:05.452Z,40.41
2023-08-16T19:13:31.888Z,41.33
2023-08-16T19:15:58.452Z,41.29
2023-08-16T19:18:24.927Z,41.47
2023-08-16T19:20:51.373Z,41.78
2023-08-16T19:23:17.819Z,42.12
2023-08-16T19:25:44.396Z,42.37
2023-08-16T19:28:11.271Z,42.19
2023-08-16T19:30:37.919Z,42.35
2023-08-16T19:33:06.970Z,42.29
2023-08-16T19:35:43.484Z,42.50
2023-08-16T19:38:10.449Z,42.58
2023-08-16T19:40:37.172Z,43.00
2023-08-16T19:43:04.007Z,43.42
2023-08-16T19:45:31.769Z,43.48
2023-08-16T19:48:07.400Z,44.00
2023-08-16T19:50:35.158Z,43.17
2023-08-16T19:53:01.675Z,43.65
2023-08-16T19:55:28.432Z,43.87
2023-08-16T19:57:56.033Z,43.71
2023-08-16T20:00:25.350Z,44.29
2023-08-16T20:02:54.277Z,44.29
2023-08-16T20:05:24.165Z,44.21
2023-08-16T20:07:52.329Z,44.31
2023-08-16T20:10:19.234Z,44.01
2023-08-16T20:12:46.508Z,44.29
2023-08-16T20:15:14.610Z,44.73
2023-08-16T20:17:41.287Z,44.58
2023-08-16T20:20:08.701Z,44.50
2023-08-16T20:22:36.235Z,43.97
2023-08-16T20:25:03.845Z,44.55
2023-08-16T20:27:31.430Z,44.77
2023-08-16T20:29:58.069Z,44.84
2023-08-16T20:32:24.639Z,44.67
2023-08-16T20:34:53.207Z,45.11
2023-08-16T20:37:19.914Z,45.07
2023-08-16T20:39:51.611Z,45.24
2023-08-16T20:42:18.665Z,45.52
2023-08-16T20:44:45.680Z,45.63
2023-08-16T20:47:12.886Z,45.45
2023-08-16T20:49:39.856Z,45.57
2023-08-16T20:52:06.948Z,45.70
2023-08-16T20:54:34.005Z,46.14
2023-08-16T20:57:00.498Z,45.73
2023-08-16T20:59:29.292Z,46.07
2023-08-16T21:01:55.937Z,45.49
2023-08-16T21:04:22.568Z,45.89
2023-08-16T21:06:49.065Z,46.09
2023-08-16T21:09:16.611Z,46.60
2023-08-16T21:11:43.227Z,46.21
2023-08-16T21:14:09.827Z,47.04
2023-08-16T21:16:37.417Z,46.64
2023-08-16T21:19:04.193Z,47.17
2023-08-16T21:21:32.618Z,47.28
2023-08-16T21:23:59.281Z,47.03
2023-08-16T21:26:25.957Z,47.39
2023-08-16T21:28:52.464Z,47.20
2023-08-16T21:31:22.941Z,47.09
2023-08-16T21:33:50.053Z,46.28
2023-08-16T21:36:17.257Z,46.17
2023-08-16T21:38:45.827Z,46.31
2023-08-16T21:41:15.270Z,46.18
2023-08-16T21:43:41.844Z,46.80
2023-08-16T21:46:10.313Z,46.51
2023-08-16T21:48:38.228Z,46.86
2023-08-16T21:51:05.819Z,46.72
2023-08-16T21:53:32.427Z,46.36
2023-08-16T21:56:00.009Z,46.61
2023-08-16T21:58:26.955Z,46.96
2023-08-16T22:00:56.193Z,47.12
2023-08-16T22:03:24.840Z,46.80
2023-08-16T22:05:52.368Z,47.18
2023-08-16T22:08:19.963Z,47.37
2023-08-16T22:10:49.342Z,46.97
2023-08-16T22:13:16.928Z,47.39
2023-08-16T22:15:43.737Z,47.13
2023-08-16T22:18:11.366Z,47.25
2023-08-16T22:20:39.970Z,47.14
2023-08-16T22:23:12.576Z,47.10
2023-08-16T22:25:40.162Z,47.13
2023-08-16T22:28:08.614Z,46.56
2023-08-16T22:30:35.601Z,46.27
2023-08-16T22:33:02.259Z,46.58
2023-08-16T22:35:29.550Z,46.07
2023-08-16T22:37:56.399Z,46.16
2023-08-16T22:40:26.501Z,45.60
2023-08-16T22:42:52.977Z,45.27
2023-08-16T22:45:19.456Z,45.48
2023-08-16T22:47:46.164Z,45.34
2023-08-16T22:50:12.821Z,45.68
2023-08-16T22:52:40.383Z,45.32
2023-08-16T22:55:10.463Z,45.68
2023-08-16T22:57:37.057Z,45.48
2023-08-16T23:00:03.838Z,46.31
2023-08-16T23:02:30.346Z,45.69
2023-08-16T23:04:56.870Z,46.42
2023-08-16T23:07:23.629Z,46.21
2023-08-16T23:09:54.171Z,45.70
2023-08-16T23:12:28.517Z,46.22
2023-08-16T23:14:56.223Z,46.19
2023-08-16T23:17:22.904Z,46.05
2023-08-16T23:19:49.563Z,46.35
2023-08-16T23:22:16.089Z,46.34
2023-08-16T23:24:42.614Z,46.94
2023-08-16T23:27:09.087Z,46.45
2023-08-16T23:29:35.953Z,46.91
2023-08-16T23:32:02.444Z,46.33
2023-08-16T23:34:29.292Z,46.30
2023-08-16T23:36:55.785Z,47.52
2023-08-16T23:39:28.151Z,46.90
2023-08-16T23:41:56.793Z,46.83
2023-08-16T23:44:26.340Z,47.53
2023-08-16T23:46:52.809Z,47.71
2023-08-16T23:52:01.179Z,50.66
2023-08-16T23:54:28.777Z,50.75
2023-08-16T23:56:57.386Z,51.89
2023-08-16T23:59:24.989Z,51.77
